Time;durP1;ratioP1;P1;durP2;ratioP2;P2;SDS_P1;SDS_P2;PMS_P1;PMS_P2;Temp;Humidity;BMP_temperature;BMP_pressure;BME280_temperature;BME280_humidity;BME280_pressure;Samples;Min_cycle;Max_cycle;Signal;HPM_P1;HPM_P2
2023/01/29 00:01:14;;;;;;;25.30;9.80;;;;;;;-1.04;100.00;101685.57;5118344;55;1140868;-74
2023/01/29 00:06:22;;;;;;;15.00;5.63;;;;;;;-1.08;100.00;101679.58;5189872;55;1141085;-72
2023/01/29 00:11:27;;;;;;;14.90;6.13;;;;;;;-1.11;100.00;101674.42;5192615;55;1140816;-73
2023/01/29 00:16:33;;;;;;;18.17;7.50;;;;;;;-1.11;100.00;101662.73;5117112;56;1140779;-71
2023/01/29 00:21:39;;;;;;;13.50;5.23;;;;;;;-1.12;100.00;101656.69;5117005;55;1140771;-69
2023/01/29 00:26:45;;;;;;;11.13;4.70;;;;;;;-1.13;100.00;101652.80;5137655;55;1140973;-73
2023/01/29 00:31:50;;;;;;;7.60;4.57;;;;;;;-1.15;100.00;101640.27;5126103;55;1140950;-70
2023/01/29 00:37:03;;;;;;;12.07;5.45;;;;;;;-1.19;100.00;101644.64;5144041;55;1138765;-73
2023/01/29 00:47:34;;;;;;;11.37;4.97;;;;;;;-1.21;100.00;101628.66;5236076;55;1140882;-75
2023/01/29 00:52:40;;;;;;;10.97;4.50;;;;;;;-1.24;100.00;101640.39;5130178;56;1140799;-69
2023/01/29 00:57:47;;;;;;;13.20;4.90;;;;;;;-1.28;100.00;101634.38;5130134;56;1140850;-70
2023/01/29 01:03:05;;;;;;;13.30;4.58;;;;;;;-1.31;100.00;101644.78;5135787;55;1140986;-72
2023/01/29 01:13:37;;;;;;;9.37;4.30;;;;;;;-1.35;100.00;101657.36;5165697;55;1138885;-72
2023/01/29 01:18:44;;;;;;;7.67;3.70;;;;;;;-1.39;100.00;101640.13;5151607;55;1138894;-71
2023/01/29 01:23:50;;;;;;;9.03;3.63;;;;;;;-1.42;100.00;101632.36;5166953;55;1138818;-70
2023/01/29 01:28:56;;;;;;;12.10;4.07;;;;;;;-1.45;100.00;101622.02;5190103;55;1138775;-69
2023/01/29 01:34:02;;;;;;;10.98;4.90;;;;;;;-1.49;100.00;101620.31;5145552;55;1141157;-72
2023/01/29 01:39:07;;;;;;;13.90;4.95;;;;;;;-1.53;100.00;101635.05;5236828;55;1140956;-72
2023/01/29 01:44:54;;;;;;;6.87;3.27;;;;;;;-1.58;100.00;101621.28;5216484;55;1141080;-69
2023/01/29 01:50:06;;;;;;;8.33;3.83;;;;;;;-1.60;100.00;101624.77;5206923;55;1138689;-68
2023/01/29 01:55:15;;;;;;;9.70;4.35;;;;;;;-1.62;100.00;101640.78;5188701;55;1138792;-72
2023/01/29 02:00:24;;;;;;;7.50;3.72;;;;;;;-1.59;100.00;101644.20;5148985;56;1138791;-69
2023/01/29 02:10:57;;;;;;;11.53;4.77;;;;;;;-1.52;100.00;101618.61;5087144;55;1140923;-68
2023/01/29 02:16:03;;;;;;;10.05;3.70;;;;;;;-1.48;100.00;101622.90;5115812;55;1141037;-74
2023/01/29 02:22:04;;;;;;;8.85;3.42;;;;;;;-1.44;100.00;101614.66;5133733;55;1141095;-69
2023/01/29 02:27:21;;;;;;;8.80;3.62;;;;;;;-1.47;100.00;101616.84;5044268;56;1139022;-70
2023/01/29 02:33:06;;;;;;;8.70;3.77;;;;;;;-1.47;100.00;101614.24;4982619;55;1139103;-69
2023/01/29 02:38:49;;;;;;;6.10;3.50;;;;;;;-1.44;100.00;101614.22;5032318;56;1139007;-71
2023/01/29 02:44:22;;;;;;;6.90;3.00;;;;;;;-1.42;100.00;101610.31;5052112;56;1138829;-73
2023/01/29 02:49:56;;;;;;;5.70;3.40;;;;;;;-1.40;100.00;101609.00;5007832;56;1138663;-72
2023/01/29 02:55:09;;;;;;;12.90;3.77;;;;;;;-1.39;100.00;101606.39;5031285;56;1138862;-72
2023/01/29 03:00:20;;;;;;;7.30;3.35;;;;;;;-1.39;100.00;101591.27;5069179;56;1140816;-73
2023/01/29 03:05:33;;;;;;;9.50;3.52;;;;;;;-1.42;100.00;101593.01;5134887;56;1138988;-74
2023/01/29 03:10:44;;;;;;;8.83;4.10;;;;;;;-1.40;100.00;101587.81;5115173;56;1139010;-72
2023/01/29 03:16:00;;;;;;;7.47;4.00;;;;;;;-1.38;100.00;101580.88;5130511;55;1138952;-70
2023/01/29 03:21:58;;;;;;;8.20;3.30;;;;;;;-1.37;100.00;101572.61;5081705;56;1141553;-74
2023/01/29 03:32:10;;;;;;;10.15;4.15;;;;;;;-1.34;100.00;101555.72;5066828;56;1138689;-66
2023/01/29 03:37:17;;;;;;;6.83;3.53;;;;;;;-1.33;100.00;101541.87;5029646;56;1140952;-68
2023/01/29 03:42:45;;;;;;;9.33;3.50;;;;;;;-1.31;100.00;101535.78;5032198;56;1138865;-70
2023/01/29 03:48:20;;;;;;;6.27;3.40;;;;;;;-1.31;100.00;101537.08;5055698;56;1138833;-70
2023/01/29 03:54:04;;;;;;;12.68;3.98;;;;;;;-1.31;100.00;101525.41;5069771;55;1138877;-71
2023/01/29 03:59:29;;;;;;;6.52;4.08;;;;;;;-1.34;100.00;101525.88;5115066;55;1140825;-71
2023/01/29 04:04:50;;;;;;;7.70;3.83;;;;;;;-1.33;100.00;101514.63;5065894;56;1138694;-69
2023/01/29 04:10:13;;;;;;;11.97;5.17;;;;;;;-1.35;100.00;101508.59;4980371;57;1138911;-70
2023/01/29 04:15:23;;;;;;;7.40;4.40;;;;;;;-1.32;100.00;101503.37;5127660;56;1140790;-69
2023/01/29 04:20:29;;;;;;;10.43;3.90;;;;;;;-1.35;100.00;101486.09;5129828;55;1138842;-68
2023/01/29 04:25:39;;;;;;;7.03;4.60;;;;;;;-1.35;100.00;101483.94;5195469;55;1140883;-67
2023/01/29 04:31:04;;;;;;;4.90;3.12;;;;;;;-1.34;100.00;101478.73;5119934;55;1139173;-72
2023/01/29 04:36:23;;;;;;;6.47;4.33;;;;;;;-1.32;100.00;101476.12;5114056;55;1138734;-68
2023/01/29 04:41:52;;;;;;;8.57;3.17;;;;;;;-1.29;100.00;101474.79;5105616;55;1138776;-71
2023/01/29 04:47:14;;;;;;;8.87;4.00;;;;;;;-1.27;100.00;101444.05;5207604;55;1139302;-66
2023/01/29 04:52:48;;;;;;;5.33;3.33;;;;;;;-1.26;100.00;101461.34;5136585;55;1138831;-70
2023/01/29 04:58:16;;;;;;;9.47;4.23;;;;;;;-1.26;100.00;101456.59;5029414;56;1138645;-71
2023/01/29 05:03:25;;;;;;;8.78;4.50;;;;;;;-1.26;100.00;101449.66;5124617;55;1138778;-71
2023/01/29 05:08:33;;;;;;;5.70;4.03;;;;;;;-1.26;100.00;101457.45;5131452;55;1139145;-68
2023/01/29 05:13:42;;;;;;;11.87;6.10;;;;;;;-1.26;100.00;101447.06;5117859;55;1139036;-71
2023/01/29 05:18:49;;;;;;;10.30;4.27;;;;;;;-1.28;100.00;101441.03;5130895;55;1141066;-69
2023/01/29 05:24:12;;;;;;;8.77;4.70;;;;;;;-1.26;100.00;101441.02;5271336;54;1141210;-66
2023/01/29 05:29:20;;;;;;;14.85;5.40;;;;;;;-1.27;100.00;101436.27;5287233;54;1138851;-71
2023/01/29 05:34:27;;;;;;;12.07;5.00;;;;;;;-1.28;100.00;101425.91;5275863;54;1140803;-71
2023/01/29 05:39:33;;;;;;;8.13;4.53;;;;;;;-1.28;100.00;101424.16;5268638;54;1140874;-69
2023/01/29 05:44:39;;;;;;;11.10;4.67;;;;;;;-1.27;100.00;101444.48;4950488;57;1138743;-68
2023/01/29 05:49:45;;;;;;;12.00;5.80;;;;;;;-1.30;100.00;101444.52;5199844;55;1140820;-68
2023/01/29 05:54:51;;;;;;;8.13;4.47;;;;;;;-1.31;100.00;101446.27;5012242;56;1141110;-69
2023/01/29 05:59:57;;;;;;;10.17;5.33;;;;;;;-1.35;100.00;101448.91;5251347;55;1138806;-70
2023/01/29 06:05:04;;;;;;;11.45;5.45;;;;;;;-1.35;100.00;101461.88;5064783;56;1141024;-71
2023/01/29 06:10:14;;;;;;;6.20;4.30;;;;;;;-1.34;100.00;101468.36;5017788;56;1141123;-71
2023/01/29 06:15:20;;;;;;;11.13;4.60;;;;;;;-1.34;100.00;101463.16;5185588;55;1138712;-71
2023/01/29 06:20:27;;;;;;;9.13;4.37;;;;;;;-1.35;100.00;101456.26;5213684;54;1140906;-70
2023/01/29 06:25:33;;;;;;;11.23;6.00;;;;;;;-1.34;100.00;101463.16;5219550;54;1138990;-70
2023/01/29 06:30:39;;;;;;;12.30;5.80;;;;;;;-1.33;100.00;101480.89;5219625;54;1140958;-73
2023/01/29 06:35:44;;;;;;;15.20;6.93;;;;;;;-1.31;100.00;101485.63;5239706;54;1140911;-71
2023/01/29 06:40:50;;;;;;;9.37;5.73;;;;;;;-1.29;100.00;101489.06;5185733;55;1141054;-68
2023/01/29 06:45:57;;;;;;;10.93;6.40;;;;;;;-1.32;100.00;101479.58;5247774;54;1138668;-64
2023/01/29 06:51:06;;;;;;;8.67;5.60;;;;;;;-1.36;100.00;101477.89;5101731;56;1140977;-71
2023/01/29 06:56:12;;;;;;;12.03;5.57;;;;;;;-1.40;100.00;101461.97;5247350;54;1138739;-74
2023/01/29 07:01:17;;;;;;;15.93;8.07;;;;;;;-1.37;100.00;101460.61;5188949;55;1141008;-71
2023/01/29 07:06:31;;;;;;;14.23;7.80;;;;;;;-1.35;100.00;101447.17;5188345;54;1140944;-72
2023/01/29 07:11:37;;;;;;;12.78;7.45;;;;;;;-1.33;100.00;101441.53;5232018;54;1140791;-74
2023/01/29 07:16:42;;;;;;;14.30;8.67;;;;;;;-1.28;100.00;101445.37;5252128;54;1140875;-67
2023/01/29 07:21:49;;;;;;;27.17;12.83;;;;;;;-1.26;100.00;101442.31;5219333;54;1140788;-64
2023/01/29 07:26:55;;;;;;;26.17;13.13;;;;;;;-1.21;100.00;101441.34;5254272;54;1143085;-66
2023/01/29 07:32:01;;;;;;;19.40;9.77;;;;;;;-1.17;100.00;101432.64;5266153;54;1142919;-68
2023/01/29 07:37:07;;;;;;;15.70;8.17;;;;;;;-1.11;100.00;101438.20;5221860;54;1141007;-69
2023/01/29 07:42:13;;;;;;;16.95;8.98;;;;;;;-1.10;100.00;101439.47;5239217;54;1141046;-65
2023/01/29 07:47:19;;;;;;;13.50;7.53;;;;;;;-1.10;100.00;101434.28;5230465;54;1140868;-68
2023/01/29 07:52:25;;;;;;;13.50;7.10;;;;;;;-1.11;100.00;101437.75;5241527;54;1140906;-69
2023/01/29 07:57:31;;;;;;;12.87;7.60;;;;;;;-1.10;100.00;101444.66;5274199;54;1140845;-71
2023/01/29 08:02:37;;;;;;;15.93;9.67;;;;;;;-1.04;100.00;101451.92;5294944;54;1141066;-68
2023/01/29 08:07:43;;;;;;;15.53;7.53;;;;;;;-1.01;100.00;101451.44;5274370;54;1140964;-70
2023/01/29 08:12:57;;;;;;;14.83;6.83;;;;;;;-1.01;100.00;101443.66;5216897;54;1141045;-71
2023/01/29 08:18:03;;;;;;;19.83;10.20;;;;;;;-0.99;100.00;101445.79;5183893;55;1140967;-70
2023/01/29 08:23:15;;;;;;;21.00;11.40;;;;;;;-0.97;100.00;101442.73;5232023;54;1143110;-68
2023/01/29 08:28:21;;;;;;;17.67;9.67;;;;;;;-0.91;100.00;101433.97;5215239;54;1143077;-71
2023/01/29 08:33:28;;;;;;;15.83;8.97;;;;;;;-0.89;100.00;101423.98;5265595;54;1140982;-68
2023/01/29 08:38:33;;;;;;;25.83;11.40;;;;;;;-0.86;100.00;101412.70;5288699;54;1140845;-65
2023/01/29 08:43:39;;;;;;;16.77;10.07;;;;;;;-0.82;100.00;101391.85;5238884;54;1142939;-66
2023/01/29 08:48:45;;;;;;;21.80;10.10;;;;;;;-0.79;100.00;101385.31;5202474;54;1143062;-67
2023/01/29 08:53:51;;;;;;;29.10;12.40;;;;;;;-0.77;100.00;101391.78;5294399;54;1143089;-68
2023/01/29 08:58:56;;;;;;;16.80;8.93;;;;;;;-0.73;100.00;101388.23;5271213;54;1142952;-66
2023/01/29 09:04:02;;;;;;;21.10;9.77;;;;;;;-0.72;100.00;101380.41;5277948;54;1140862;-66
2023/01/29 09:09:08;;;;;;;19.67;11.97;;;;;;;-0.75;100.00;101383.05;5299327;54;1140855;-68
2023/01/29 09:14:13;;;;;;;22.98;11.68;;;;;;;-0.71;100.00;101402.91;5196017;54;1142930;-68
2023/01/29 09:19:19;;;;;;;27.30;11.80;;;;;;;-0.68;100.00;101395.51;5189414;55;1142946;-69
2023/01/29 09:24:25;;;;;;;19.98;10.85;;;;;;;-0.64;100.00;101395.87;5245607;54;1142920;-66
2023/01/29 09:29:30;;;;;;;16.97;9.23;;;;;;;-0.63;100.00;101396.30;5207607;55;1142779;-69
2023/01/29 09:34:36;;;;;;;18.43;9.83;;;;;;;-0.65;100.00;101394.16;5209565;55;1140763;-67
2023/01/29 09:39:42;;;;;;;18.87;11.47;;;;;;;-0.64;100.00;101393.72;5247309;54;1141018;-66
2023/01/29 09:44:58;;;;;;;20.87;9.83;;;;;;;-0.63;100.00;101388.50;5197334;55;1143348;-68
2023/01/29 09:50:19;;;;;;;27.60;13.47;;;;;;;-0.59;100.00;101403.13;5198812;55;1140953;-70
2023/01/29 09:55:51;;;;;;;20.47;10.67;;;;;;;-0.56;100.00;101387.93;5195192;55;1143170;-67
2023/01/29 10:01:04;;;;;;;20.40;11.87;;;;;;;-0.54;100.00;101387.47;5195666;55;1143038;-68
2023/01/29 10:07:04;;;;;;;21.30;12.75;;;;;;;-0.52;100.00;101379.20;5215970;55;1143143;-66
2023/01/29 10:12:17;;;;;;;25.23;14.80;;;;;;;-0.54;100.00;101374.03;5195532;55;1142820;-69
2023/01/29 10:17:51;;;;;;;37.53;13.00;;;;;;;-0.54;100.00;101367.54;5195573;55;1145470;-67
2023/01/29 10:23:15;;;;;;;25.05;13.08;;;;;;;-0.56;100.00;101358.91;5155896;55;1142998;-69
2023/01/29 10:28:44;;;;;;;23.67;14.10;;;;;;;-0.52;100.00;101349.33;5124463;55;1143150;-66
2023/01/29 10:33:56;;;;;;;21.23;11.87;;;;;;;-0.47;100.00;101337.12;5162372;55;1142976;-69
2023/01/29 10:39:01;;;;;;;21.00;10.83;;;;;;;-0.43;100.00;101320.11;5190163;54;1142983;-69
2023/01/29 10:44:35;;;;;;;25.80;13.10;;;;;;;-0.37;100.00;101320.45;5181888;54;1143115;-66
2023/01/29 10:49:54;;;;;;;16.87;9.68;;;;;;;-0.38;100.00;101307.04;5164756;55;1142952;-69
2023/01/29 10:55:29;;;;;;;25.53;12.80;;;;;;;-0.40;100.00;101295.81;5194624;55;1140955;-70
2023/01/29 11:00:41;;;;;;;23.10;12.03;;;;;;;-0.40;100.00;101288.02;5194244;55;1142960;-70
2023/01/29 11:06:13;;;;;;;19.70;10.33;;;;;;;-0.37;100.00;101290.12;5214828;55;1143026;-70
2023/01/29 11:11:22;;;;;;;16.23;9.00;;;;;;;-0.38;100.00;101301.40;5190897;55;1143077;-72
2023/01/29 11:16:32;;;;;;;17.90;9.67;;;;;;;-0.40;100.00;101291.47;5126110;55;1140946;-67
2023/01/29 11:21:54;;;;;;;13.72;8.08;;;;;;;-0.40;100.00;101276.33;5113974;56;1140882;-69
2023/01/29 11:27:03;;;;;;;25.03;11.53;;;;;;;-0.41;100.00;101262.92;5091826;55;1140965;-70
2023/01/29 11:32:23;;;;;;;24.34;12.82;;;;;;;-0.40;100.00;101270.69;5046826;56;1143079;-68
2023/01/29 11:37:41;;;;;;;13.23;8.30;;;;;;;-0.40;100.00;101258.99;5136704;55;1143155;-69
2023/01/29 11:42:47;;;;;;;28.37;10.80;;;;;;;-0.39;100.00;101254.66;5136901;55;1140903;-67
2023/01/29 11:47:57;;;;;;;17.43;8.53;;;;;;;-0.42;100.00;101229.58;5189341;55;1143097;-71
2023/01/29 11:53:05;;;;;;;20.03;8.90;;;;;;;-0.42;100.00;101232.63;5107484;55;1141350;-66
2023/01/29 11:58:27;;;;;;;28.87;13.43;;;;;;;-0.44;100.00;101214.45;5127926;56;1140939;-69
2023/01/29 12:03:47;;;;;;;23.30;10.27;;;;;;;-0.40;100.00;101211.36;5107729;56;1143118;-66
2023/01/29 12:09:01;;;;;;;30.60;15.13;;;;;;;-0.41;100.00;101205.31;5107444;56;1142965;-70
2023/01/29 12:14:28;;;;;;;27.17;14.25;;;;;;;-0.41;100.00;101206.61;5104351;55;1143243;-70
2023/01/29 12:19:49;;;;;;;31.00;12.43;;;;;;;-0.36;100.00;101192.22;5192763;55;1143236;-69
2023/01/29 12:25:09;;;;;;;25.60;12.30;;;;;;;-0.36;100.00;101186.58;5111068;55;1143156;-67
2023/01/29 12:30:37;;;;;;;31.60;14.25;;;;;;;-0.30;100.00;101185.57;5117222;56;1142996;-69
2023/01/29 12:36:04;;;;;;;27.53;12.17;;;;;;;-0.29;100.00;101189.02;5181429;56;1142896;-68
2023/01/29 12:41:21;;;;;;;37.48;16.52;;;;;;;-0.25;100.00;101185.48;5158933;55;1143006;-68
2023/01/29 12:46:40;;;;;;;41.68;24.47;;;;;;;-0.25;100.00;101182.44;5134767;55;1143054;-65
2023/01/29 12:51:53;;;;;;;26.30;13.00;;;;;;;-0.20;100.00;101182.34;5212601;55;1142960;-67
2023/01/29 12:57:02;;;;;;;46.37;20.87;;;;;;;-0.19;100.00;101177.11;5189590;55;1143159;-69
2023/01/29 13:02:24;;;;;;;29.03;14.27;;;;;;;-0.17;100.00;101177.08;5194481;55;1143066;-67
2023/01/29 13:07:34;;;;;;;25.37;13.17;;;;;;;-0.17;100.00;101163.63;5214428;55;1142975;-68
2023/01/29 13:12:44;;;;;;;54.83;25.20;;;;;;;-0.13;100.00;101141.00;5142055;55;1142817;-66
2023/01/29 13:18:00;;;;;;;23.63;13.97;;;;;;;-0.08;100.00;101118.35;5108052;56;1142822;-66
2023/01/29 13:23:17;;;;;;;26.62;13.25;;;;;;;-0.06;100.00;101112.67;5175518;55;1143168;-64
2023/01/29 13:28:26;;;;;;;41.90;16.25;;;;;;;-0.05;100.00;101120.44;5211421;55;1142887;-69
2023/01/29 13:33:32;;;;;;;30.27;16.00;;;;;;;-0.05;100.00;101128.69;5194874;55;1143377;-67
2023/01/29 13:38:38;;;;;;;30.03;15.80;;;;;;;-0.07;100.00;101129.16;5192448;55;1142918;-68
2023/01/29 13:43:48;;;;;;;18.30;8.13;;;;;;;-0.07;100.00;101130.02;5159503;55;1142842;-67
2023/01/29 13:48:59;;;;;;;24.77;14.37;;;;;;;-0.08;100.00;101130.05;5194834;55;1140928;-70
2023/01/29 13:54:09;;;;;;;26.23;12.47;;;;;;;-0.08;100.00;101133.95;5195820;55;1142864;-66
2023/01/29 13:59:31;;;;;;;29.77;14.23;;;;;;;-0.08;100.00;101127.01;5222097;54;1143068;-68
2023/01/29 14:04:36;;;;;;;22.93;9.93;;;;;;;-0.07;100.00;101118.77;5237615;54;1142980;-70
2023/01/29 14:09:47;;;;;;;23.17;12.30;;;;;;;-0.03;100.00;101119.96;5177195;55;1141000;-66
2023/01/29 14:15:00;;;;;;;38.97;20.40;;;;;;;-0.02;100.00;101111.72;5127844;54;1142916;-69
2023/01/29 14:20:19;;;;;;;26.27;13.53;;;;;;;-0.01;100.00;101104.33;5134635;55;1142985;-65
2023/01/29 14:25:32;;;;;;;17.50;9.20;;;;;;;0.02;100.00;101086.47;5141476;55;1142880;-66
2023/01/29 14:30:39;;;;;;;22.60;12.00;;;;;;;0.01;100.00;101080.41;5123293;55;1138770;-67
2023/01/29 14:35:50;;;;;;;25.10;15.60;;;;;;;0.06;100.00;101092.00;5122555;55;1140996;-68
2023/01/29 14:41:10;;;;;;;25.53;12.47;;;;;;;0.06;100.00;101097.20;5131482;55;1140908;-71
2023/01/29 14:46:39;;;;;;;38.47;16.90;;;;;;;0.05;100.00;101087.25;5188973;54;1147472;-71
2023/01/29 14:51:46;;;;;;;25.07;12.63;;;;;;;0.06;100.00;101085.51;5210293;54;1140901;-70
2023/01/29 14:56:58;;;;;;;21.80;13.10;;;;;;;0.05;100.00;101081.20;5210023;54;1141015;-65
2023/01/29 15:02:35;;;;;;;24.20;12.90;;;;;;;0.06;100.00;101068.16;5210619;54;1141029;-69
2023/01/29 15:08:10;;;;;;;19.85;11.20;;;;;;;0.05;100.00;101074.70;5141930;56;1140796;-71
2023/01/29 15:13:23;;;;;;;18.77;10.43;;;;;;;0.04;100.00;101079.48;5119833;56;1140769;-69
2023/01/29 15:18:33;;;;;;;21.95;12.23;;;;;;;0.02;100.00;101065.66;5117407;56;1140950;-70
2023/01/29 15:23:39;;;;;;;22.17;12.07;;;;;;;0.04;100.00;101056.94;5186973;55;1140968;-68
2023/01/29 15:28:47;;;;;;;23.97;12.90;;;;;;;0.07;100.00;101054.71;5209174;55;1140909;-69
2023/01/29 15:33:55;;;;;;;38.60;20.12;;;;;;;0.09;100.00;101048.58;5204979;54;1140792;-71
2023/01/29 15:39:17;;;;;;;25.43;11.57;;;;;;;0.11;100.00;101036.84;5122733;55;1140957;-69
2023/01/29 15:44:24;;;;;;;22.85;12.80;;;;;;;0.10;100.00;101040.33;5172967;54;1140920;-69
2023/01/29 15:49:35;;;;;;;20.20;10.43;;;;;;;0.06;100.00;101020.49;5198188;54;1140931;-67
2023/01/29 15:54:41;;;;;;;24.30;12.90;;;;;;;0.06;100.00;101020.49;5126522;55;1140844;-69
2023/01/29 15:59:50;;;;;;;28.57;14.30;;;;;;;0.06;100.00;101026.55;5136042;55;1140960;-67
2023/01/29 16:04:56;;;;;;;26.33;14.60;;;;;;;0.07;100.00;101018.30;5185488;55;1140856;-67
2023/01/29 16:10:02;;;;;;;22.80;11.23;;;;;;;0.08;100.00;101008.31;5139905;55;1140851;-65
2023/01/29 16:15:13;;;;;;;28.60;14.75;;;;;;;0.07;100.00;101002.25;5106374;55;1140818;-66
2023/01/29 16:20:32;;;;;;;33.60;16.57;;;;;;;0.07;100.00;100992.30;5128594;55;1140731;-66
2023/01/29 16:25:39;;;;;;;33.33;14.87;;;;;;;0.09;100.00;100999.61;5101879;55;1140861;-67
2023/01/29 16:30:46;;;;;;;21.30;10.87;;;;;;;0.12;100.00;100993.89;5108497;55;1140771;-67
2023/01/29 16:35:52;;;;;;;28.10;13.50;;;;;;;0.14;100.00;100989.95;5128410;55;1140841;-65
2023/01/29 16:41:14;;;;;;;25.77;13.77;;;;;;;0.15;100.00;100990.36;5108284;55;1141023;-69
2023/01/29 16:46:38;;;;;;;25.52;12.28;;;;;;;0.18;100.00;100987.20;5164979;54;1141029;-65
2023/01/29 16:51:43;;;;;;;38.17;18.67;;;;;;;0.20;100.00;100984.56;5151146;55;1140800;-68
2023/01/29 16:56:52;;;;;;;20.43;11.20;;;;;;;0.22;100.00;100982.78;5107706;55;1141090;-66
2023/01/29 17:01:58;;;;;;;33.23;19.67;;;;;;;0.23;100.00;100986.64;5155723;54;1141310;-65
2023/01/29 17:07:04;;;;;;;22.40;12.30;;;;;;;0.27;100.00;100979.16;5195088;55;1141065;-67
2023/01/29 17:12:14;;;;;;;72.10;33.03;;;;;;;0.30;100.00;100973.03;5176773;55;1141068;-67
2023/01/29 17:17:20;;;;;;;17.57;10.98;;;;;;;0.31;100.00;100967.75;5109273;55;1146484;-68
2023/01/29 17:22:27;;;;;;;26.50;14.98;;;;;;;0.32;100.00;100965.56;5109231;55;1141005;-66
2023/01/29 17:27:33;;;;;;;22.55;14.25;;;;;;;0.35;100.00;100958.97;5129052;55;1140952;-67
2023/01/29 17:32:39;;;;;;;23.27;13.83;;;;;;;0.34;100.00;100962.91;5108785;55;1140763;-65
2023/01/29 17:37:45;;;;;;;16.43;9.13;;;;;;;0.35;100.00;100951.62;5109269;55;1141005;-69
2023/01/29 17:42:51;;;;;;;27.20;13.33;;;;;;;0.33;100.00;100954.26;5174638;54;1138701;-66
2023/01/29 17:47:59;;;;;;;25.40;13.83;;;;;;;0.30;100.00;100953.52;5275028;54;1140973;-70
2023/01/29 17:53:05;;;;;;;22.03;11.83;;;;;;;0.29;100.00;100940.96;5237206;54;1140858;-66
2023/01/29 17:58:20;;;;;;;23.60;14.10;;;;;;;0.28;100.00;100931.45;5184013;55;1140854;-69
2023/01/29 18:03:26;;;;;;;29.80;12.07;;;;;;;0.29;100.00;100920.59;5121692;55;1140952;-69
2023/01/29 18:08:35;;;;;;;31.33;15.73;;;;;;;0.26;100.00;100913.73;5138346;56;1141075;-67
2023/01/29 18:13:41;;;;;;;26.93;14.20;;;;;;;0.26;100.00;100913.73;5123241;56;1140949;-71
2023/01/29 18:18:47;;;;;;;21.90;13.13;;;;;;;0.30;100.00;100914.05;5075322;56;1140839;-67
2023/01/29 18:23:53;;;;;;;27.00;14.83;;;;;;;0.34;100.00;100901.78;5075188;56;1140964;-70
2023/01/29 18:28:58;;;;;;;33.17;14.97;;;;;;;0.36;100.00;100902.59;5146396;56;1140918;-67
2023/01/29 18:34:04;;;;;;;43.77;20.53;;;;;;;0.37;100.00;100895.64;5180699;56;1140825;-67
2023/01/29 18:39:11;;;;;;;47.40;20.17;;;;;;;0.37;100.00;100880.03;5160637;55;1141022;-68
2023/01/29 18:44:17;;;;;;;43.80;19.50;;;;;;;0.35;100.00;100875.72;5138685;56;1140973;-70
2023/01/29 18:49:24;;;;;;;33.73;16.83;;;;;;;0.33;100.00;100860.61;5142701;55;1140971;-71
2023/01/29 18:54:30;;;;;;;30.08;15.98;;;;;;;0.34;100.00;100859.70;5128314;55;1141074;-70
2023/01/29 18:59:35;;;;;;;29.00;12.25;;;;;;;0.32;100.00;100847.64;5069563;55;1141087;-70
2023/01/29 19:04:42;;;;;;;32.00;16.10;;;;;;;0.29;100.00;100847.76;5127922;55;1140746;-66
2023/01/29 19:09:49;;;;;;;24.50;12.33;;;;;;;0.29;100.00;100853.81;5086980;55;1140758;-69
2023/01/29 19:14:54;;;;;;;21.20;10.50;;;;;;;0.26;100.00;100845.24;5095620;56;1141033;-70
2023/01/29 19:20:03;;;;;;;31.63;17.13;;;;;;;0.26;100.00;100829.64;5102126;56;1140967;-67
2023/01/29 19:25:10;;;;;;;33.03;19.80;;;;;;;0.27;100.00;100824.84;5100055;55;1141120;-69
2023/01/29 19:30:16;;;;;;;30.00;16.20;;;;;;;0.23;100.00;100812.37;5116416;55;1141046;-68
2023/01/29 19:35:22;;;;;;;32.37;18.47;;;;;;;0.24;100.00;100808.02;5108610;55;1140910;-71
2023/01/29 19:40:28;;;;;;;93.15;31.00;;;;;;;0.24;100.00;100813.22;5135525;55;1141075;-69
2023/01/29 19:45:35;;;;;;;111.83;34.80;;;;;;;0.22;100.00;100795.51;5090130;55;1140953;-69
2023/01/29 19:50:42;;;;;;;49.37;17.27;;;;;;;0.22;100.00;100791.61;5158881;55;1143011;-66
2023/01/29 19:56:00;;;;;;;38.07;13.83;;;;;;;0.20;100.00;100784.30;5207403;55;1140846;-70
2023/01/29 20:01:19;;;;;;;32.17;13.17;;;;;;;0.19;100.00;100776.09;5182588;55;1140904;-71
2023/01/29 20:06:29;;;;;;;36.08;16.77;;;;;;;0.19;100.00;100771.73;5001281;57;1141085;-68
2023/01/29 20:11:35;;;;;;;114.50;37.15;;;;;;;0.20;100.00;100754.39;5149199;55;1140875;-68
2023/01/29 20:16:41;;;;;;;35.30;14.90;;;;;;;0.20;100.00;100739.63;5098638;55;1143047;-69
2023/01/29 20:21:48;;;;;;;33.87;12.77;;;;;;;0.21;100.00;100745.69;5120265;55;1140902;-67
2023/01/29 20:26:54;;;;;;;29.25;15.18;;;;;;;0.21;100.00;100739.19;5136101;55;1140856;-68
2023/01/29 20:32:01;;;;;;;48.30;19.95;;;;;;;0.18;100.00;100727.56;5129248;55;1140899;-70
2023/01/29 20:37:07;;;;;;;38.00;15.23;;;;;;;0.17;100.00;100721.97;5135543;55;1141006;-70
2023/01/29 20:42:14;;;;;;;22.43;11.53;;;;;;;0.18;100.00;100704.16;5168687;55;1141018;-72
2023/01/29 20:47:20;;;;;;;29.20;13.30;;;;;;;0.21;100.00;100704.92;5141031;55;1140918;-72
2023/01/29 20:52:26;;;;;;;21.07;13.13;;;;;;;0.17;100.00;100694.20;5145520;55;1140950;-70
2023/01/29 20:57:32;;;;;;;22.70;11.95;;;;;;;0.18;100.00;100682.91;5154590;55;1140973;-68
2023/01/29 21:02:39;;;;;;;34.10;11.38;;;;;;;0.16;100.00;100668.25;5135507;55;1141265;-70
2023/01/29 21:07:45;;;;;;;27.50;14.37;;;;;;;0.15;100.00;100667.87;5141238;55;1140946;-70
2023/01/29 21:12:53;;;;;;;26.20;14.57;;;;;;;0.13;100.00;100665.33;5155882;55;1140887;-66
2023/01/29 21:18:03;;;;;;;21.60;9.67;;;;;;;0.15;100.00;100650.98;5141331;55;1140835;-67
2023/01/29 21:23:07;;;;;;;26.43;14.47;;;;;;;0.13;100.00;100640.63;5127610;55;1138649;-69
2023/01/29 21:28:15;;;;;;;29.98;14.47;;;;;;;0.15;100.00;100617.17;5129801;55;1140825;-69
2023/01/29 21:33:23;;;;;;;41.77;17.57;;;;;;;0.15;100.00;100615.87;5156250;55;1140894;-70
2023/01/29 21:38:29;;;;;;;36.27;11.67;;;;;;;0.14;100.00;100615.02;5147512;55;1141030;-68
2023/01/29 21:43:36;;;;;;;23.02;11.08;;;;;;;0.13;100.00;100614.62;5146942;55;1141082;-70
2023/01/29 21:48:42;;;;;;;25.60;12.25;;;;;;;0.12;100.00;100605.56;5161093;55;1140958;-70
2023/01/29 21:53:47;;;;;;;19.50;9.73;;;;;;;0.11;100.00;100597.36;5146320;55;1140766;-67
2023/01/29 21:58:54;;;;;;;27.13;11.60;;;;;;;0.13;100.00;100592.52;5145423;55;1138804;-69
2023/01/29 22:03:59;;;;;;;25.47;13.47;;;;;;;0.13;100.00;100577.36;5147420;55;1141129;-71
2023/01/29 22:09:05;;;;;;;28.05;12.70;;;;;;;0.13;100.00;100578.20;5179641;55;1140875;-68
2023/01/29 22:14:11;;;;;;;23.67;12.07;;;;;;;0.13;100.00;100557.41;5124938;55;1141096;-71
2023/01/29 22:19:17;;;;;;;17.60;9.23;;;;;;;0.15;100.00;100553.45;5117317;55;1140927;-70
2023/01/29 22:24:24;;;;;;;39.43;17.40;;;;;;;0.14;100.00;100531.80;5138448;55;1139016;-68
2023/01/29 22:29:30;;;;;;;22.37;10.77;;;;;;;0.14;100.00;100516.20;5117750;55;1140752;-70
2023/01/29 22:34:36;;;;;;;19.77;10.03;;;;;;;0.14;100.00;100502.34;5117882;55;1140721;-71
2023/01/29 22:39:41;;;;;;;24.63;13.33;;;;;;;0.13;100.00;100493.70;5141782;56;1141028;-68
2023/01/29 22:44:47;;;;;;;22.03;8.33;;;;;;;0.14;100.00;100484.99;5160815;55;1141166;-70
2023/01/29 22:49:53;;;;;;;16.43;9.60;;;;;;;0.14;100.00;100466.80;5158355;55;1138893;-70
2023/01/29 22:54:59;;;;;;;16.87;9.60;;;;;;;0.15;100.00;100463.29;5100730;56;1138950;-70
2023/01/29 23:00:11;;;;;;;25.70;12.80;;;;;;;0.15;100.00;100457.23;5118493;56;1138814;-67
2023/01/29 23:05:17;;;;;;;20.67;12.30;;;;;;;0.14;100.00;100450.34;5117552;56;1140760;-72
2023/01/29 23:10:23;;;;;;;12.30;6.00;;;;;;;0.15;100.00;100437.28;5092648;56;1141070;-71
2023/01/29 23:15:29;;;;;;;20.53;11.10;;;;;;;0.13;100.00;100405.73;5062592;57;1138838;-70
2023/01/29 23:20:34;;;;;;;15.13;7.40;;;;;;;0.16;100.00;100409.50;4987387;57;1141035;-67
2023/01/29 23:31:04;;;;;;;22.80;10.73;;;;;;;0.14;100.00;100374.93;5064338;56;1139145;-68